createdAt,value
2019-06-08T00:01:44.087Z,48.33
2019-06-08T00:04:14.398Z,47.85
2019-06-08T00:06:44.280Z,48.30
2019-06-08T00:09:14.726Z,48.41
2019-06-08T00:11:45.195Z,48.60
2019-06-08T00:14:15.154Z,48.44
2019-06-08T00:16:45.484Z,48.36
2019-06-08T00:19:15.309Z,48.40
2019-06-08T00:21:46.295Z,48.10
2019-06-08T00:24:15.751Z,48.34
2019-06-08T00:26:45.335Z,48.34
2019-06-08T00:29:14.536Z,48.60
2019-06-08T00:31:44.416Z,48.89
2019-06-08T00:34:14.504Z,48.99
2019-06-08T00:36:44.985Z,49.16
2019-06-08T00:42:08.591Z,49.11
2019-06-08T00:44:37.882Z,49.15
2019-06-08T00:47:07.189Z,49.16
2019-06-08T00:49:36.386Z,49.39
2019-06-08T00:52:05.639Z,49.43
2019-06-08T00:54:35.148Z,49.65
2019-06-08T00:57:04.788Z,49.56
2019-06-08T00:59:33.989Z,49.94
2019-06-08T01:02:03.236Z,50.24
2019-06-08T01:04:32.788Z,50.35
2019-06-08T01:07:02.469Z,50.48
2019-06-08T01:09:31.668Z,50.39
2019-06-08T01:12:00.904Z,50.28
2019-06-08T01:14:30.101Z,50.04
2019-06-08T01:16:59.350Z,49.88
2019-06-08T01:19:29.649Z,50.25
2019-06-08T01:21:59.531Z,50.32
2019-06-08T01:24:40.996Z,50.00
2019-06-08T01:27:30.213Z,49.91
2019-06-08T01:29:59.381Z,48.08
2019-06-08T01:32:28.958Z,47.03
2019-06-08T01:34:58.164Z,46.57
2019-06-08T01:37:47.116Z,46.03
2019-06-08T01:40:16.334Z,45.37
2019-06-08T01:42:57.320Z,44.65
2019-06-08T01:45:55.994Z,44.54
2019-06-08T01:48:26.283Z,44.33
2019-06-08T01:50:56.172Z,44.17
2019-06-08T01:53:26.716Z,43.75
2019-06-08T01:55:56.755Z,43.84
2019-06-08T01:58:27.325Z,43.01
2019-06-08T02:00:56.956Z,42.90
2019-06-08T02:03:26.401Z,42.75
2019-06-08T02:05:57.562Z,42.72
2019-06-08T02:08:26.767Z,42.31
2019-06-08T02:10:56.343Z,42.64
2019-06-08T02:13:26.806Z,42.53
2019-06-08T02:15:56.536Z,42.69
2019-06-08T02:18:36.510Z,42.58
2019-06-08T02:20:57.028Z,42.78
2019-06-08T02:23:26.991Z,42.88
2019-06-08T02:25:57.784Z,42.44
2019-06-08T02:28:27.439Z,42.69
2019-06-08T02:30:57.988Z,42.54
2019-06-08T02:33:28.275Z,42.51
2019-06-08T02:35:58.459Z,43.01
2019-06-08T02:38:29.775Z,42.95
2019-06-08T02:40:58.859Z,43.00
2019-06-08T02:43:28.986Z,43.11
2019-06-08T02:45:59.726Z,43.28
2019-06-08T02:48:29.542Z,43.03
2019-06-08T02:57:23.219Z,43.14
2019-06-08T03:00:12.890Z,43.15
2019-06-08T03:03:21.815Z,43.07
2019-06-08T03:12:35.254Z,43.41
2019-06-08T03:15:45.060Z,43.38
2019-06-08T03:18:14.317Z,43.40
2019-06-08T03:20:43.510Z,43.49
2019-06-08T03:23:13.140Z,43.30
2019-06-08T03:25:51.938Z,43.44
2019-06-08T03:28:13.355Z,43.74
2019-06-08T03:30:52.543Z,43.80
2019-06-08T03:33:13.901Z,43.97
2019-06-08T03:35:52.569Z,43.93
2019-06-08T03:38:14.573Z,43.84
2019-06-08T03:40:45.302Z,44.00
2019-06-08T03:43:15.096Z,44.05
2019-06-08T03:45:45.391Z,44.28
2019-06-08T03:48:15.281Z,44.59
2019-06-08T03:50:46.314Z,44.72
2019-06-08T03:53:15.970Z,44.67
2019-06-08T03:55:47.197Z,44.76
2019-06-08T03:58:16.523Z,44.66
2019-06-08T04:00:47.054Z,44.81
2019-06-08T04:03:16.871Z,44.96
2019-06-08T04:05:46.576Z,44.88
2019-06-08T04:08:17.061Z,44.92
2019-06-08T04:10:46.948Z,45.06
2019-06-08T04:13:17.543Z,45.15
2019-06-08T04:15:47.164Z,45.26
2019-06-08T04:18:17.718Z,45.20
2019-06-08T04:20:48.843Z,45.40
2019-06-08T04:23:18.282Z,45.23
2019-06-08T04:25:47.862Z,45.14
2019-06-08T04:28:18.443Z,45.28
2019-06-08T04:30:49.838Z,45.03
2019-06-08T04:33:19.264Z,45.10
2019-06-08T04:35:50.645Z,45.06
2019-06-08T04:38:20.145Z,45.19
2019-06-08T04:40:50.178Z,45.09
2019-06-08T04:43:20.321Z,45.29
2019-06-08T04:45:49.928Z,45.30
2019-06-08T04:48:20.790Z,45.18
2019-06-08T04:50:50.040Z,45.31
2019-06-08T04:56:07.848Z,45.47
2019-06-08T04:58:39.082Z,45.50
2019-06-08T05:01:08.028Z,45.15
2019-06-08T05:03:39.083Z,45.23
2019-06-08T05:06:08.226Z,45.33
2019-06-08T05:08:39.049Z,45.03
2019-06-08T05:11:09.034Z,45.14
2019-06-08T05:13:39.141Z,45.25
2019-06-08T05:16:09.579Z,45.32
2019-06-08T05:18:39.269Z,45.28
2019-06-08T05:21:08.888Z,45.46
2019-06-08T05:23:39.261Z,45.68
2019-06-08T05:26:09.432Z,45.58
2019-06-08T05:28:39.158Z,45.86
2019-06-08T05:31:08.398Z,45.85
2019-06-08T05:33:37.606Z,45.92
2019-06-08T05:36:06.812Z,45.78
2019-06-08T05:38:36.090Z,45.78
2019-06-08T05:41:05.293Z,45.71
2019-06-08T05:43:34.547Z,45.80
2019-06-08T05:46:04.083Z,45.95
2019-06-08T05:48:33.643Z,45.64
2019-06-08T05:51:04.187Z,45.44
2019-06-08T05:53:34.188Z,45.49
2019-06-08T05:56:03.667Z,46.08
2019-06-08T05:58:32.918Z,46.01
2019-06-08T06:01:02.135Z,46.03
2019-06-08T06:03:31.517Z,46.12
2019-06-08T06:06:00.740Z,45.92
2019-06-08T06:08:29.994Z,45.71
2019-06-08T06:10:59.193Z,45.68
2019-06-08T06:13:28.795Z,45.68
2019-06-08T06:15:58.005Z,45.87
2019-06-08T06:18:27.303Z,45.73
2019-06-08T06:21:09.887Z,45.69
2019-06-08T06:23:27.435Z,45.51
2019-06-08T06:25:56.736Z,45.44
2019-06-08T06:28:26.228Z,45.22
2019-06-08T06:30:55.488Z,45.54
2019-06-08T06:33:24.693Z,45.10
2019-06-08T06:35:53.953Z,45.58
2019-06-08T06:38:23.165Z,45.48
2019-06-08T06:40:52.432Z,45.61
2019-06-08T06:43:22.249Z,45.38
2019-06-08T06:45:52.227Z,45.47
2019-06-08T06:48:23.750Z,45.36
2019-06-08T06:50:53.797Z,45.63
2019-06-08T06:53:22.983Z,45.22
2019-06-08T06:55:53.326Z,45.02
2019-06-08T06:58:23.435Z,44.60
2019-06-08T07:03:47.983Z,44.58
2019-06-08T07:06:18.695Z,44.96
2019-06-08T07:08:48.244Z,44.96
2019-06-08T07:11:18.890Z,45.07
2019-06-08T07:13:48.716Z,45.19
2019-06-08T07:16:19.593Z,45.74
2019-06-08T07:18:50.335Z,45.65
2019-06-08T07:21:19.934Z,45.59
2019-06-08T07:23:50.822Z,45.70
2019-06-08T07:26:20.579Z,45.81
2019-06-08T07:28:51.857Z,45.63
2019-06-08T07:31:21.067Z,45.76
2019-06-08T07:33:51.885Z,45.92
2019-06-08T07:36:22.038Z,46.08
2019-06-08T07:38:51.586Z,45.90
2019-06-08T07:41:21.199Z,45.71
2019-06-08T07:43:50.771Z,45.90
2019-06-08T07:46:21.738Z,45.80
2019-06-08T07:48:52.228Z,45.31
2019-06-08T07:51:21.885Z,45.36
2019-06-08T07:53:51.545Z,45.19
2019-06-08T07:56:22.362Z,44.74
2019-06-08T07:58:53.178Z,45.07
2019-06-08T08:01:35.274Z,44.80
2019-06-08T08:03:54.138Z,44.16
2019-06-08T08:06:24.574Z,44.03
2019-06-08T08:08:54.810Z,43.76
2019-06-08T08:11:24.875Z,43.78
2019-06-08T08:13:54.871Z,43.54
2019-06-08T08:16:25.074Z,43.27
2019-06-08T08:18:55.547Z,43.25
2019-06-08T08:21:44.479Z,42.85
2019-06-08T08:24:13.775Z,42.85
2019-06-08T08:26:42.985Z,42.73
2019-06-08T08:29:12.602Z,41.55
2019-06-08T08:31:42.117Z,42.11
2019-06-08T08:34:11.362Z,42.15
2019-06-08T08:36:40.565Z,42.38
2019-06-08T08:39:09.922Z,41.76
2019-06-08T08:41:39.272Z,41.48
2019-06-08T08:44:08.453Z,40.62
2019-06-08T08:46:38.738Z,40.54
2019-06-08T08:52:03.698Z,38.14
2019-06-08T08:54:32.964Z,37.73
2019-06-08T08:57:05.047Z,36.75
2019-06-08T08:59:33.156Z,37.00
2019-06-08T09:02:03.105Z,36.45
2019-06-08T09:04:33.377Z,36.13
2019-06-08T09:07:06.897Z,36.30
2019-06-08T09:09:33.661Z,35.98
2019-06-08T09:12:04.467Z,35.86
2019-06-08T09:14:33.860Z,35.90
2019-06-08T09:17:03.624Z,35.80
2019-06-08T09:19:34.081Z,36.30
2019-06-08T09:22:04.069Z,35.92
2019-06-08T09:24:34.986Z,36.06
2019-06-08T09:27:04.626Z,35.54
2019-06-08T09:29:35.161Z,35.20
2019-06-08T09:32:04.443Z,35.48
2019-06-08T09:34:54.288Z,33.75
2019-06-08T09:37:42.776Z,33.88
2019-06-08T09:40:32.638Z,33.65
2019-06-08T09:43:06.310Z,33.65
2019-06-08T09:45:53.660Z,33.14
2019-06-08T09:48:33.817Z,33.14
2019-06-08T09:51:22.165Z,32.94
2019-06-08T09:53:51.369Z,32.94
2019-06-08T09:56:40.049Z,34.46
2019-06-08T09:59:28.607Z,33.76
2019-06-08T10:02:18.744Z,33.77
2019-06-08T10:04:49.370Z,33.77
2019-06-08T10:07:18.827Z,33.02
2019-06-08T10:09:50.164Z,32.49
2019-06-08T10:12:19.088Z,32.35
2019-06-08T10:14:48.990Z,32.26
2019-06-08T10:17:38.625Z,32.37
2019-06-08T10:23:29.832Z,32.92
2019-06-08T10:25:48.190Z,32.76
2019-06-08T10:28:21.440Z,32.59
2019-06-08T10:30:49.288Z,32.10
2019-06-08T10:33:40.661Z,31.83
2019-06-08T10:36:12.271Z,32.09
2019-06-08T10:38:41.180Z,30.77
2019-06-08T10:41:17.640Z,30.58
2019-06-08T10:43:42.495Z,30.36
2019-06-08T10:46:16.688Z,30.79
2019-06-08T10:48:42.716Z,31.08
2019-06-08T10:51:13.102Z,31.23
2019-06-08T10:54:02.189Z,31.36
2019-06-08T10:56:31.434Z,31.12
2019-06-08T10:59:03.465Z,30.18
2019-06-08T11:01:31.990Z,30.58
2019-06-08T11:04:01.976Z,30.51
2019-06-08T11:06:32.148Z,29.45
2019-06-08T11:09:04.277Z,29.30
2019-06-08T11:11:32.648Z,29.14
2019-06-08T11:14:03.511Z,28.71
2019-06-08T11:16:33.187Z,29.95
2019-06-08T11:19:03.052Z,29.83
2019-06-08T11:21:33.364Z,29.06
2019-06-08T11:24:13.300Z,28.92
2019-06-08T11:26:33.607Z,28.71
2019-06-08T11:29:03.034Z,27.86
2019-06-08T11:31:33.800Z,27.20
2019-06-08T11:34:03.944Z,26.78
2019-06-08T11:36:33.993Z,27.09
2019-06-08T11:39:04.190Z,27.04
2019-06-08T11:41:34.341Z,27.24
2019-06-08T11:44:05.074Z,27.70
2019-06-08T11:46:34.509Z,27.76
2019-06-08T11:49:05.091Z,27.62
2019-06-08T11:52:14.093Z,28.08
2019-06-08T11:54:43.250Z,27.76
2019-06-08T11:57:12.999Z,27.70
2019-06-08T11:59:43.742Z,27.47
2019-06-08T12:02:14.253Z,27.63
2019-06-08T12:04:43.893Z,27.70
2019-06-08T12:07:13.990Z,27.85
2019-06-08T12:09:44.425Z,26.68
2019-06-08T12:12:17.783Z,26.50
2019-06-08T12:14:47.476Z,26.57
2019-06-08T12:17:21.706Z,26.21
2019-06-08T12:19:47.696Z,26.06
2019-06-08T12:22:21.687Z,26.31
2019-06-08T12:24:49.454Z,25.85
2019-06-08T12:27:29.513Z,26.22
2019-06-08T12:29:50.457Z,26.22
2019-06-08T12:32:20.583Z,25.83
2019-06-08T12:34:49.772Z,25.82
2019-06-08T12:37:22.211Z,26.38
2019-06-08T12:39:49.937Z,26.63
2019-06-08T12:42:22.977Z,26.29
2019-06-08T12:44:50.142Z,26.77
2019-06-08T12:47:25.834Z,26.75
2019-06-08T12:49:50.289Z,26.55
2019-06-08T12:52:21.958Z,26.32
2019-06-08T12:55:00.064Z,25.69
2019-06-08T12:57:22.160Z,26.06
2019-06-08T12:59:52.410Z,26.37
2019-06-08T13:02:24.071Z,26.50
2019-06-08T13:04:52.627Z,26.76
2019-06-08T13:07:22.203Z,25.68
2019-06-08T13:09:51.410Z,25.00
2019-06-08T13:12:21.886Z,24.99
2019-06-08T13:14:52.217Z,24.59
2019-06-08T13:17:21.917Z,24.33
2019-06-08T13:19:51.142Z,24.81
2019-06-08T13:22:27.967Z,23.55
2019-06-08T13:24:52.086Z,21.37
2019-06-08T13:27:23.214Z,19.98
2019-06-08T13:29:53.541Z,19.53
2019-06-08T13:32:22.742Z,20.25
2019-06-08T13:34:52.661Z,21.78
2019-06-08T13:37:22.257Z,22.75
2019-06-08T13:39:53.204Z,23.32
2019-06-08T13:42:23.182Z,23.74
2019-06-08T13:44:53.558Z,23.96
2019-06-08T13:47:23.155Z,24.04
2019-06-08T13:49:53.844Z,24.19
2019-06-08T13:52:24.193Z,24.15
2019-06-08T13:54:54.359Z,24.37
2019-06-08T13:57:25.073Z,24.49
2019-06-08T13:59:54.606Z,24.63
2019-06-08T14:02:28.531Z,24.51
2019-06-08T14:04:54.805Z,24.60
2019-06-08T14:07:28.479Z,24.56
2019-06-08T14:09:55.320Z,25.45
2019-06-08T14:12:25.795Z,24.25
2019-06-08T14:17:31.144Z,23.30
2019-06-08T14:20:00.427Z,24.17
2019-06-08T14:22:30.497Z,24.00
2019-06-08T14:25:00.172Z,23.91
2019-06-08T14:27:32.965Z,23.87
2019-06-08T14:30:00.425Z,23.83
2019-06-08T14:32:29.666Z,23.71
2019-06-08T14:34:59.870Z,23.52
2019-06-08T14:37:30.551Z,22.97
2019-06-08T14:40:00.886Z,22.48
2019-06-08T14:42:31.742Z,22.70
2019-06-08T14:45:01.430Z,22.42
2019-06-08T14:47:30.950Z,21.62
2019-06-08T14:50:01.579Z,21.89
2019-06-08T14:52:31.166Z,22.43
2019-06-08T14:55:00.421Z,22.28
2019-06-08T14:57:30.834Z,22.80
2019-06-08T15:00:08.329Z,23.13
2019-06-08T15:02:32.033Z,23.25
2019-06-08T15:05:01.300Z,22.69
2019-06-08T15:07:32.373Z,22.81
2019-06-08T15:10:01.419Z,22.99
2019-06-08T15:12:31.499Z,22.82
2019-06-08T15:15:01.606Z,22.88
2019-06-08T15:17:32.065Z,22.69
2019-06-08T15:20:01.809Z,22.47
2019-06-08T15:22:32.008Z,22.21
2019-06-08T15:25:02.329Z,22.46
2019-06-08T15:30:45.966Z,22.50
2019-06-08T15:33:15.189Z,22.47
2019-06-08T15:35:44.463Z,21.97
2019-06-08T15:38:13.676Z,21.85
2019-06-08T15:40:43.287Z,20.57
2019-06-08T15:43:12.971Z,19.98
2019-06-08T15:45:42.680Z,19.90
2019-06-08T15:48:12.249Z,19.77
2019-06-08T15:50:41.525Z,19.84
2019-06-08T15:53:10.772Z,19.40
2019-06-08T15:55:40.073Z,18.89
2019-06-08T15:58:09.284Z,18.53
2019-06-08T16:00:38.566Z,19.54
2019-06-08T16:03:07.882Z,20.26
2019-06-08T16:05:37.144Z,20.20
2019-06-08T16:08:06.750Z,19.63
2019-06-08T16:10:35.994Z,18.67
2019-06-08T16:13:05.289Z,18.41
2019-06-08T16:15:35.284Z,17.10
2019-06-08T16:18:05.648Z,16.05
2019-06-08T16:20:35.764Z,16.16
2019-06-08T16:23:06.685Z,15.03
2019-06-08T16:25:38.761Z,14.30
2019-06-08T16:28:06.957Z,13.54
2019-06-08T16:30:36.167Z,12.93
2019-06-08T16:33:05.872Z,12.14
2019-06-08T16:35:35.766Z,12.90
2019-06-08T16:38:06.384Z,12.70
2019-06-08T16:40:36.329Z,12.61
2019-06-08T16:43:07.021Z,12.34
2019-06-08T16:45:36.968Z,11.87
2019-06-08T16:48:06.274Z,11.62
2019-06-08T16:50:36.366Z,11.95
2019-06-08T16:53:06.777Z,11.42
2019-06-08T16:55:36.210Z,10.98
2019-06-08T16:58:05.500Z,10.35
2019-06-08T17:00:38.603Z,9.68
2019-06-08T17:03:05.851Z,10.00
2019-06-08T17:05:35.305Z,9.84
2019-06-08T17:08:04.610Z,10.01
2019-06-08T17:10:34.646Z,10.30
2019-06-08T17:13:05.152Z,10.68
2019-06-08T17:15:34.375Z,10.50
2019-06-08T17:18:04.274Z,10.45
2019-06-08T17:20:36.297Z,10.34
2019-06-08T17:23:05.926Z,10.72
2019-06-08T17:25:36.509Z,10.83
2019-06-08T17:28:06.248Z,12.25
2019-06-08T17:30:35.781Z,14.41
2019-06-08T17:33:06.844Z,15.04
2019-06-08T17:35:37.587Z,14.30
2019-06-08T17:38:07.439Z,15.21
2019-06-08T17:40:38.050Z,17.07
2019-06-08T17:43:08.032Z,19.03
2019-06-08T17:45:38.507Z,20.94
2019-06-08T17:48:08.888Z,22.70
2019-06-08T17:50:38.687Z,24.15
2019-06-08T17:53:09.068Z,24.95
2019-06-08T17:55:39.480Z,25.61
2019-06-08T17:58:09.581Z,26.18
2019-06-08T18:00:39.484Z,26.99
2019-06-08T18:03:09.780Z,27.48
2019-06-08T18:05:42.303Z,28.05
2019-06-08T18:08:10.014Z,28.23
2019-06-08T18:10:41.447Z,28.66
2019-06-08T18:13:10.256Z,28.89
2019-06-08T18:15:41.548Z,29.20
2019-06-08T18:18:11.204Z,29.39
2019-06-08T18:20:42.099Z,29.62
2019-06-08T18:23:11.474Z,29.98
2019-06-08T18:25:42.104Z,30.16
2019-06-08T18:28:13.592Z,30.18
2019-06-08T18:30:44.748Z,30.15
2019-06-08T18:33:14.309Z,30.19
2019-06-08T18:35:44.597Z,30.38
2019-06-08T18:38:14.955Z,30.55
2019-06-08T18:40:45.560Z,30.95
2019-06-08T18:43:17.053Z,30.94
2019-06-08T18:48:57.736Z,31.24
2019-06-08T18:51:28.094Z,31.31
2019-06-08T18:54:08.588Z,31.46
2019-06-08T18:56:28.696Z,31.80
2019-06-08T18:58:58.440Z,31.79
2019-06-08T19:01:27.949Z,32.04
2019-06-08T19:03:58.697Z,32.23
2019-06-08T19:09:38.779Z,32.51
2019-06-08T19:12:07.520Z,32.42
2019-06-08T19:14:37.778Z,32.70
2019-06-08T19:17:07.946Z,32.74
2019-06-08T19:19:41.253Z,32.72
2019-06-08T19:22:08.722Z,32.76
2019-06-08T19:24:40.748Z,32.55
2019-06-08T19:27:08.962Z,32.78
2019-06-08T19:29:41.777Z,32.90
2019-06-08T19:32:09.216Z,32.79
2019-06-08T19:34:40.631Z,32.96
2019-06-08T19:37:09.895Z,33.26
2019-06-08T19:39:43.128Z,33.22
2019-06-08T19:42:10.979Z,33.06
2019-06-08T19:44:46.662Z,32.97
2019-06-08T19:47:11.618Z,33.13
2019-06-08T19:49:41.828Z,33.26
2019-06-08T19:52:12.495Z,33.45
2019-06-08T19:54:43.646Z,33.70
2019-06-08T19:57:12.687Z,33.66
2019-06-08T19:59:41.899Z,33.67
2019-06-08T20:02:11.151Z,33.61
2019-06-08T20:04:40.642Z,33.57
2019-06-08T20:07:11.400Z,33.74
2019-06-08T20:09:41.103Z,33.98
2019-06-08T20:12:11.611Z,34.18
2019-06-08T20:14:41.305Z,34.33
2019-06-08T20:17:11.756Z,34.58
2019-06-08T20:19:41.041Z,34.54
2019-06-08T20:22:10.265Z,34.50
2019-06-08T20:24:39.533Z,34.53
2019-06-08T20:27:10.288Z,34.60
2019-06-08T20:29:41.193Z,34.79
2019-06-08T20:32:10.862Z,34.87
2019-06-08T20:34:40.150Z,34.85
2019-06-08T20:37:09.717Z,35.16
2019-06-08T20:39:39.833Z,35.13
2019-06-08T20:42:11.917Z,35.36
2019-06-08T20:44:40.045Z,35.27
2019-06-08T20:47:09.265Z,35.34
2019-06-08T20:49:38.551Z,35.61
2019-06-08T20:52:08.635Z,35.55
2019-06-08T20:54:39.084Z,35.31
2019-06-08T20:57:08.321Z,35.29
2019-06-08T20:59:40.015Z,35.26
2019-06-08T21:02:08.876Z,35.55
2019-06-08T21:04:38.466Z,35.55
2019-06-08T21:07:09.059Z,35.68
2019-06-08T21:09:38.632Z,35.68
2019-06-08T21:12:07.889Z,35.69
2019-06-08T21:14:37.956Z,35.68
2019-06-08T21:17:08.258Z,35.79
2019-06-08T21:19:37.462Z,35.82
2019-06-08T21:22:08.219Z,35.70
2019-06-08T21:24:37.639Z,35.57
2019-06-08T21:27:08.205Z,35.64
2019-06-08T21:29:47.639Z,35.66
2019-06-08T21:32:09.407Z,35.63
2019-06-08T21:34:38.978Z,35.66
2019-06-08T21:37:09.170Z,35.66
2019-06-08T21:39:39.822Z,35.65
2019-06-08T21:42:09.511Z,35.71
2019-06-08T21:44:39.080Z,35.95
2019-06-08T21:47:08.409Z,36.05
2019-06-08T21:49:38.435Z,35.93
2019-06-08T21:52:08.606Z,36.02
2019-06-08T21:54:37.811Z,36.32
2019-06-08T21:57:09.539Z,36.41
2019-06-08T21:59:38.328Z,36.51
2019-06-08T22:02:48.135Z,36.62
2019-06-08T22:05:17.780Z,36.79
2019-06-08T22:07:47.261Z,36.82
2019-06-08T22:10:37.733Z,36.87
2019-06-08T22:13:11.605Z,36.91
2019-06-08T22:15:39.763Z,36.89
2019-06-08T22:18:10.971Z,37.00
2019-06-08T22:20:40.822Z,36.96
2019-06-08T22:23:10.106Z,37.04
2019-06-08T22:25:39.409Z,36.95
2019-06-08T22:28:09.029Z,36.88
2019-06-08T22:30:42.761Z,36.80
2019-06-08T22:33:09.260Z,36.76
2019-06-08T22:35:38.588Z,36.85
2019-06-08T22:38:08.719Z,36.82
2019-06-08T22:40:39.660Z,36.60
2019-06-08T22:43:09.220Z,36.65
2019-06-08T22:45:39.391Z,36.78
2019-06-08T22:48:08.618Z,36.83
2019-06-08T22:50:38.386Z,36.80
2019-06-08T22:53:09.919Z,36.76
2019-06-08T22:55:39.215Z,37.01
2019-06-08T22:58:08.831Z,37.21
2019-06-08T23:00:51.810Z,37.03
2019-06-08T23:03:09.371Z,37.00
2019-06-08T23:05:39.083Z,37.10
2019-06-08T23:08:09.418Z,36.96
2019-06-08T23:10:39.696Z,36.91
2019-06-08T23:13:08.906Z,36.84
2019-06-08T23:15:38.428Z,36.84
2019-06-08T23:18:09.456Z,36.81
2019-06-08T23:20:39.195Z,36.99
2019-06-08T23:23:09.053Z,37.14
2019-06-08T23:25:39.461Z,37.25
2019-06-08T23:28:09.876Z,37.41
2019-06-08T23:30:40.401Z,37.54
2019-06-08T23:33:11.385Z,37.59
2019-06-08T23:36:02.969Z,37.56
2019-06-08T23:40:47.374Z,37.78
2019-06-08T23:43:18.093Z,37.61
2019-06-08T23:45:47.930Z,37.85
2019-06-08T23:48:17.554Z,37.88
2019-06-08T23:50:48.158Z,37.89
2019-06-08T23:53:18.377Z,37.85
2019-06-08T23:55:48.064Z,37.76
2019-06-08T23:58:18.597Z,37.72
